Rechercher aéroport 
image banner adimage banner adimage banner ad
image banner ad

70N - Spring Hill

Situé à Sterling, United States

ICAO - 70N, IATA -

Données fournies par Airmate  

Information générale

Coordonnées: N41°20'50" W75°24'57"
Élévation : 1729 feet MSL.
Variation magnétique : -12° East
Voir autres Aéroports à Pennsylvania

Données opérationnelles

Special qualification required
Heure actuelle UTC:
Heure actuelle locale:
Météo à : KMPO - Pocono Mountains Muni ( 23 km )
METAR: KMPO 132053Z AUTO 15006KT 10SM SCT015 OVC021 20/17 A2992 RMK AO2 SLP126 T02000172 58004 $
Voir NOTAMs / SUP AIP / TFR affectant cet aéroport [VIEW]
Fréquences de communication: [VIEW]

Pistes:

Identifiant RWYQFULongueur (ft)Largeur (ft)SurfaceLDA (ft)
0539°247842ASPH
23219°247842ASPH

Coordonnées de l'aéroport

Adresse: Sterling United States

Vue satellite de 70N